Terminal Aerodrome Forecast
Issued by NWS Sioux Falls, SD

Home | Current Version | Previous Version | Graphics & Text | Print | Product List | Glossary On
Versions: 1 2 3 4 5 6 7 8 9 10 11 12 13 14 15
000
FTUS43 KFSD 080532
TAFHON
TAF
KHON 080532Z 0806/0906 30018G25KT P6SM -SN BKN035
     FM080800 31016G24KT P6SM BKN025
     FM081600 31016G24KT P6SM BKN035
     FM082100 31014G22KT P6SM SCT035
     FM090100 31009KT P6SM SKC=

USA.gov is the U.S. government's official web portal to all federal, state and local government web resources and services.